sensor_id;sensor_type;location;lat;lon;timestamp;temperature;humidity
70321;DHT22;61127;55.826;37.046;2023-04-24T08:03:04;25.40;16.60
70321;DHT22;61127;55.826;37.046;2023-04-24T08:05:31;25.53;16.77
70321;DHT22;61127;55.826;37.046;2023-04-24T08:07:56;25.42;14.54
70321;DHT22;61127;55.826;37.046;2023-04-24T08:10:23;25.81;16.08
70321;DHT22;61127;55.826;37.046;2023-04-24T08:12:49;27.13;16.32
70321;DHT22;61127;55.826;37.046;2023-04-24T08:15:15;27.83;15.39
70321;DHT22;61127;55.826;37.046;2023-04-24T08:17:42;27.75;13.96
70321;DHT22;61127;55.826;37.046;2023-04-24T08:20:09;27.81;14.23
70321;DHT22;61127;55.826;37.046;2023-04-24T08:22:42;27.90;11.97
70321;DHT22;61127;55.826;37.046;2023-04-24T08:25:10;27.87;14.17
70321;DHT22;61127;55.826;37.046;2023-04-24T08:27:36;28.41;10.93
70321;DHT22;61127;55.826;37.046;2023-04-24T08:30:03;28.45;14.27
70321;DHT22;61127;55.826;37.046;2023-04-24T08:32:32;29.70;13.84
70321;DHT22;61127;55.826;37.046;2023-04-24T08:34:59;0.00;0.00
70321;DHT22;61127;55.826;37.046;2023-04-24T08:37:26;0.00;0.00
70321;DHT22;61127;55.826;37.046;2023-04-24T08:39:53;31.31;12.98
70321;DHT22;61127;55.826;37.046;2023-04-24T08:42:19;30.55;10.93
70321;DHT22;61127;55.826;37.046;2023-04-24T08:44:48;29.65;10.94
70321;DHT22;61127;55.826;37.046;2023-04-24T08:47:15;28.72;11.84
70321;DHT22;61127;55.826;37.046;2023-04-24T08:49:41;28.06;13.03
70321;DHT22;61127;55.826;37.046;2023-04-24T08:52:08;29.16;14.03
70321;DHT22;61127;55.826;37.046;2023-04-24T08:54:35;29.91;10.68
70321;DHT22;61127;55.826;37.046;2023-04-24T08:57:02;28.73;10.57
70321;DHT22;61127;55.826;37.046;2023-04-24T08:59:30;27.70;11.04
70321;DHT22;61127;55.826;37.046;2023-04-24T09:01:56;27.30;13.25
70321;DHT22;61127;55.826;37.046;2023-04-24T09:04:23;27.01;10.74
70321;DHT22;61127;55.826;37.046;2023-04-24T09:06:57;26.89;12.81
70321;DHT22;61127;55.826;37.046;2023-04-24T09:09:24;28.10;11.45
70321;DHT22;61127;55.826;37.046;2023-04-24T09:11:51;27.81;11.11
70321;DHT22;61127;55.826;37.046;2023-04-24T09:14:20;28.12;11.85
70321;DHT22;61127;55.826;37.046;2023-04-24T09:16:47;29.47;10.44
70321;DHT22;61127;55.826;37.046;2023-04-24T09:19:13;28.34;10.43
70321;DHT22;61127;55.826;37.046;2023-04-24T09:21:39;27.58;11.62
70321;DHT22;61127;55.826;37.046;2023-04-24T09:24:08;27.21;12.33
70321;DHT22;61127;55.826;37.046;2023-04-24T09:26:39;28.03;14.10
70321;DHT22;61127;55.826;37.046;2023-04-24T09:29:05;29.95;11.54
70321;DHT22;61127;55.826;37.046;2023-04-24T09:31:31;30.54;10.85
70321;DHT22;61127;55.826;37.046;2023-04-24T09:34:02;29.60;10.76
70321;DHT22;61127;55.826;37.046;2023-04-24T09:36:36;30.11;11.79
70321;DHT22;61127;55.826;37.046;2023-04-24T09:39:05;29.22;11.09
70321;DHT22;61127;55.826;37.046;2023-04-24T09:41:34;28.29;10.41
70321;DHT22;61127;55.826;37.046;2023-04-24T09:44:14;27.52;10.78
70321;DHT22;61127;55.826;37.046;2023-04-24T09:46:41;26.92;11.74
70321;DHT22;61127;55.826;37.046;2023-04-24T09:49:09;26.45;11.90
70321;DHT22;61127;55.826;37.046;2023-04-24T09:51:37;26.20;13.20
70321;DHT22;61127;55.826;37.046;2023-04-24T09:54:23;28.30;12.88
70321;DHT22;61127;55.826;37.046;2023-04-24T09:56:51;30.56;12.26
70321;DHT22;61127;55.826;37.046;2023-04-24T09:59:18;32.49;8.94
70321;DHT22;61127;55.826;37.046;2023-04-24T10:01:45;32.64;9.64
70321;DHT22;61127;55.826;37.046;2023-04-24T10:04:25;0.00;0.00
70321;DHT22;61127;55.826;37.046;2023-04-24T10:06:53;34.52;6.26
70321;DHT22;61127;55.826;37.046;2023-04-24T10:09:21;35.38;5.15
70321;DHT22;61127;55.826;37.046;2023-04-24T10:11:49;36.12;5.94
70321;DHT22;61127;55.826;37.046;2023-04-24T10:14:17;0.00;0.00
70321;DHT22;61127;55.826;37.046;2023-04-24T10:16:44;0.00;0.00
70321;DHT22;61127;55.826;37.046;2023-04-24T10:19:16;35.28;7.54
70321;DHT22;61127;55.826;37.046;2023-04-24T10:21:43;37.12;6.46
70321;DHT22;61127;55.826;37.046;2023-04-24T10:24:14;0.00;0.00
70321;DHT22;61127;55.826;37.046;2023-04-24T10:26:42;0.00;0.00
70321;DHT22;61127;55.826;37.046;2023-04-24T10:29:10;0.00;0.00
70321;DHT22;61127;55.826;37.046;2023-04-24T10:31:38;34.64;6.30
70321;DHT22;61127;55.826;37.046;2023-04-24T10:34:06;33.28;6.86
70321;DHT22;61127;55.826;37.046;2023-04-24T10:36:37;31.98;7.31
70321;DHT22;61127;55.826;37.046;2023-04-24T10:39:09;32.03;7.47
70321;DHT22;61127;55.826;37.046;2023-04-24T10:41:37;31.46;8.02
70321;DHT22;61127;55.826;37.046;2023-04-24T10:44:07;31.87;10.14
70321;DHT22;61127;55.826;37.046;2023-04-24T10:46:34;34.96;8.94
70321;DHT22;61127;55.826;37.046;2023-04-24T10:49:07;37.15;7.45
70321;DHT22;61127;55.826;37.046;2023-04-24T10:51:50;38.71;5.53
70321;DHT22;61127;55.826;37.046;2023-04-24T10:54:45;40.38;4.93
70321;DHT22;61127;55.826;37.046;2023-04-24T11:00:16;42.45;2.16
70321;DHT22;61127;55.826;37.046;2023-04-24T11:02:45;42.73;2.46
70321;DHT22;61127;55.826;37.046;2023-04-24T11:05:16;42.78;3.82
70321;DHT22;61127;55.826;37.046;2023-04-24T11:13:23;43.58;3.02
70321;DHT22;61127;55.826;37.046;2023-04-24T11:18:42;0.00;2.64
70321;DHT22;61127;55.826;37.046;2023-04-24T11:21:12;35.89;2.67
70321;DHT22;61127;55.826;37.046;2023-04-24T11:23:39;33.89;4.75
70321;DHT22;61127;55.826;37.046;2023-04-24T11:26:13;32.50;5.28
70321;DHT22;61127;55.826;37.046;2023-04-24T11:28:47;31.49;6.39
70321;DHT22;61127;55.826;37.046;2023-04-24T11:31:39;30.68;7.11
70321;DHT22;61127;55.826;37.046;2023-04-24T11:34:12;33.22;8.66
70321;DHT22;61127;55.826;37.046;2023-04-24T11:36:42;36.49;6.57
70321;DHT22;61127;55.826;37.046;2023-04-24T11:39:11;39.10;5.22
70321;DHT22;61127;55.826;37.046;2023-04-24T11:41:38;41.14;3.78
70321;DHT22;61127;55.826;37.046;2023-04-24T11:44:08;42.38;2.77
70321;DHT22;61127;55.826;37.046;2023-04-24T11:46:34;42.73;3.95
70321;DHT22;61127;55.826;37.046;2023-04-24T11:49:01;40.13;0.68
70321;DHT22;61127;55.826;37.046;2023-04-24T11:51:27;37.14;2.50
70321;DHT22;61127;55.826;37.046;2023-04-24T11:53:54;34.91;4.27
70321;DHT22;61127;55.826;37.046;2023-04-24T11:56:24;33.43;5.03
70321;DHT22;61127;55.826;37.046;2023-04-24T11:58:54;32.85;5.60
70321;DHT22;61127;55.826;37.046;2023-04-24T12:01:20;31.64;5.89
70321;DHT22;61127;55.826;37.046;2023-04-24T12:03:50;30.40;6.73
70321;DHT22;61127;55.826;37.046;2023-04-24T12:06:20;29.81;8.06
70321;DHT22;61127;55.826;37.046;2023-04-24T12:08:47;30.30;8.59
70321;DHT22;61127;55.826;37.046;2023-04-24T12:11:15;30.02;7.77
70321;DHT22;61127;55.826;37.046;2023-04-24T12:13:43;30.09;7.69
70321;DHT22;61127;55.826;37.046;2023-04-24T12:16:09;29.61;8.08
70321;DHT22;61127;55.826;37.046;2023-04-24T12:18:35;29.15;8.85
70321;DHT22;61127;55.826;37.046;2023-04-24T12:21:20;28.64;11.00
70321;DHT22;61127;55.826;37.046;2023-04-24T12:23:47;29.88;10.38
70321;DHT22;61127;55.826;37.046;2023-04-24T12:30:43;29.60;8.55
70321;DHT22;61127;55.826;37.046;2023-04-24T12:33:10;29.67;10.55
70321;DHT22;61127;55.826;37.046;2023-04-24T12:35:36;29.42;8.53
70321;DHT22;61127;55.826;37.046;2023-04-24T12:38:10;29.74;10.87
70321;DHT22;61127;55.826;37.046;2023-04-24T12:40:38;30.52;7.03
70321;DHT22;61127;55.826;37.046;2023-04-24T12:43:14;29.34;8.98
70321;DHT22;61127;55.826;37.046;2023-04-24T12:45:41;28.69;8.77
70321;DHT22;61127;55.826;37.046;2023-04-24T12:48:07;28.87;11.22
70321;DHT22;61127;55.826;37.046;2023-04-24T12:50:32;32.25;9.50
70321;DHT22;61127;55.826;37.046;2023-04-24T12:52:59;35.00;8.09
70321;DHT22;61127;55.826;37.046;2023-04-24T12:55:25;36.70;5.80
70321;DHT22;61127;55.826;37.046;2023-04-24T12:57:51;38.14;6.06
70321;DHT22;61127;55.826;37.046;2023-04-24T13:00:18;39.83;5.60
70321;DHT22;61127;55.826;37.046;2023-04-24T13:02:44;0.00;2.38
70321;DHT22;61127;55.826;37.046;2023-04-24T13:05:10;0.00;0.00
70321;DHT22;61127;55.826;37.046;2023-04-24T13:07:37;35.05;4.41
70321;DHT22;61127;55.826;37.046;2023-04-24T13:10:03;33.22;4.53
70321;DHT22;61127;55.826;37.046;2023-04-24T13:12:30;34.38;7.11
70321;DHT22;61127;55.826;37.046;2023-04-24T13:14:57;36.78;5.38
70321;DHT22;61127;55.826;37.046;2023-04-24T13:17:24;38.38;5.46
70321;DHT22;61127;55.826;37.046;2023-04-24T13:19:51;39.56;3.95
70321;DHT22;61127;55.826;37.046;2023-04-24T13:22:17;40.28;4.20
70321;DHT22;61127;55.826;37.046;2023-04-24T13:24:47;40.75;3.77
70321;DHT22;61127;55.826;37.046;2023-04-24T13:27:15;40.76;3.72
70321;DHT22;61127;55.826;37.046;2023-04-24T13:29:41;41.19;3.19
70321;DHT22;61127;55.826;37.046;2023-04-24T13:32:08;40.60;3.27
70321;DHT22;61127;55.826;37.046;2023-04-24T13:34:34;41.19;4.12
70321;DHT22;61127;55.826;37.046;2023-04-24T13:37:00;41.06;2.96
70321;DHT22;61127;55.826;37.046;2023-04-24T13:39:27;40.17;1.23
70321;DHT22;61127;55.826;37.046;2023-04-24T13:41:53;40.02;2.37
70321;DHT22;61127;55.826;37.046;2023-04-24T13:44:20;37.86;1.06
70321;DHT22;61127;55.826;37.046;2023-04-24T13:46:48;35.56;3.81
70321;DHT22;61127;55.826;37.046;2023-04-24T13:49:14;33.38;4.57
70321;DHT22;61127;55.826;37.046;2023-04-24T13:51:42;32.48;5.54
70321;DHT22;61127;55.826;37.046;2023-04-24T13:54:08;32.47;5.63
70321;DHT22;61127;55.826;37.046;2023-04-24T13:56:34;31.71;6.06
70321;DHT22;61127;55.826;37.046;2023-04-24T13:59:00;31.39;6.50
70321;DHT22;61127;55.826;37.046;2023-04-24T14:01:27;31.19;7.18
70321;DHT22;61127;55.826;37.046;2023-04-24T14:03:53;30.91;6.63
70321;DHT22;61127;55.826;37.046;2023-04-24T14:06:19;30.51;6.23
70321;DHT22;61127;55.826;37.046;2023-04-24T14:08:46;30.32;7.91
70321;DHT22;61127;55.826;37.046;2023-04-24T14:11:12;30.25;7.85
70321;DHT22;61127;55.826;37.046;2023-04-24T14:13:41;30.06;7.89
70321;DHT22;61127;55.826;37.046;2023-04-24T14:16:07;29.75;8.21
70321;DHT22;61127;55.826;37.046;2023-04-24T14:18:32;29.49;8.31
70321;DHT22;61127;55.826;37.046;2023-04-24T14:20:58;29.20;8.14
70321;DHT22;61127;55.826;37.046;2023-04-24T14:23:25;28.89;7.86
70321;DHT22;61127;55.826;37.046;2023-04-24T14:25:50;28.38;8.21
70321;DHT22;61127;55.826;37.046;2023-04-24T14:28:21;27.78;8.83
70321;DHT22;61127;55.826;37.046;2023-04-24T14:30:47;27.32;9.13
70321;DHT22;61127;55.826;37.046;2023-04-24T14:33:14;26.99;9.28
70321;DHT22;61127;55.826;37.046;2023-04-24T14:35:40;26.54;9.44
70321;DHT22;61127;55.826;37.046;2023-04-24T14:38:08;26.12;9.89
70321;DHT22;61127;55.826;37.046;2023-04-24T14:40:34;25.77;10.62
70321;DHT22;61127;55.826;37.046;2023-04-24T14:43:01;25.48;10.47
70321;DHT22;61127;55.826;37.046;2023-04-24T14:45:27;25.12;10.47
70321;DHT22;61127;55.826;37.046;2023-04-24T14:47:54;24.76;10.42
70321;DHT22;61127;55.826;37.046;2023-04-24T14:50:20;24.45;11.03
70321;DHT22;61127;55.826;37.046;2023-04-24T14:52:46;24.17;11.30
70321;DHT22;61127;55.826;37.046;2023-04-24T14:55:13;23.94;11.81
70321;DHT22;61127;55.826;37.046;2023-04-24T14:57:39;23.66;12.80
70321;DHT22;61127;55.826;37.046;2023-04-24T15:00:06;23.38;12.87
70321;DHT22;61127;55.826;37.046;2023-04-24T15:02:34;23.05;13.60
70321;DHT22;61127;55.826;37.046;2023-04-24T15:05:03;22.73;13.28
70321;DHT22;61127;55.826;37.046;2023-04-24T15:07:30;22.47;12.96
70321;DHT22;61127;55.826;37.046;2023-04-24T15:09:57;22.29;13.36
70321;DHT22;61127;55.826;37.046;2023-04-24T15:12:23;22.13;13.97
70321;DHT22;61127;55.826;37.046;2023-04-24T15:14:48;21.99;13.87
70321;DHT22;61127;55.826;37.046;2023-04-24T15:17:14;21.89;15.04
70321;DHT22;61127;55.826;37.046;2023-04-24T15:19:40;21.75;14.46
70321;DHT22;61127;55.826;37.046;2023-04-24T15:22:06;21.65;14.80
70321;DHT22;61127;55.826;37.046;2023-04-24T15:24:32;21.54;14.84
70321;DHT22;61127;55.826;37.046;2023-04-24T15:26:59;21.40;15.45
70321;DHT22;61127;55.826;37.046;2023-04-24T15:29:25;21.30;15.56
70321;DHT22;61127;55.826;37.046;2023-04-24T15:31:52;21.20;14.99
70321;DHT22;61127;55.826;37.046;2023-04-24T15:34:18;21.09;15.02
70321;DHT22;61127;55.826;37.046;2023-04-24T15:36:44;21.01;15.39
70321;DHT22;61127;55.826;37.046;2023-04-24T15:39:10;20.90;15.03
70321;DHT22;61127;55.826;37.046;2023-04-24T15:41:36;20.83;15.77
70321;DHT22;61127;55.826;37.046;2023-04-24T15:44:01;20.75;15.68
70321;DHT22;61127;55.826;37.046;2023-04-24T15:46:28;20.64;16.16
70321;DHT22;61127;55.826;37.046;2023-04-24T15:48:54;20.55;16.00
70321;DHT22;61127;55.826;37.046;2023-04-24T15:51:20;20.44;16.71
70321;DHT22;61127;55.826;37.046;2023-04-24T15:53:46;20.32;16.64
70321;DHT22;61127;55.826;37.046;2023-04-24T15:56:12;20.22;16.93
70321;DHT22;61127;55.826;37.046;2023-04-24T15:58:38;20.15;17.09
70321;DHT22;61127;55.826;37.046;2023-04-24T16:01:04;20.07;17.30
70321;DHT22;61127;55.826;37.046;2023-04-24T16:03:31;20.00;16.87
70321;DHT22;61127;55.826;37.046;2023-04-24T16:05:57;19.92;17.26
70321;DHT22;61127;55.826;37.046;2023-04-24T16:08:23;19.85;17.25
70321;DHT22;61127;55.826;37.046;2023-04-24T16:10:52;19.80;17.64
70321;DHT22;61127;55.826;37.046;2023-04-24T16:13:18;19.73;18.09
70321;DHT22;61127;55.826;37.046;2023-04-24T16:15:44;19.67;17.97
70321;DHT22;61127;55.826;37.046;2023-04-24T16:18:11;19.60;18.24
70321;DHT22;61127;55.826;37.046;2023-04-24T16:20:37;19.55;18.38
70321;DHT22;61127;55.826;37.046;2023-04-24T16:23:03;19.45;18.62
70321;DHT22;61127;55.826;37.046;2023-04-24T16:25:29;19.37;19.25
70321;DHT22;61127;55.826;37.046;2023-04-24T16:27:55;19.28;19.05
70321;DHT22;61127;55.826;37.046;2023-04-24T16:30:21;19.17;19.57
70321;DHT22;61127;55.826;37.046;2023-04-24T16:32:47;19.09;19.62
70321;DHT22;61127;55.826;37.046;2023-04-24T16:35:14;18.98;19.53
70321;DHT22;61127;55.826;37.046;2023-04-24T16:37:40;18.91;19.70
70321;DHT22;61127;55.826;37.046;2023-04-24T16:40:07;18.83;19.61
70321;DHT22;61127;55.826;37.046;2023-04-24T16:42:36;18.73;20.18
70321;DHT22;61127;55.826;37.046;2023-04-24T16:45:03;18.63;20.07
70321;DHT22;61127;55.826;37.046;2023-04-24T16:47:31;18.52;20.79
70321;DHT22;61127;55.826;37.046;2023-04-24T16:49:57;18.42;20.76
70321;DHT22;61127;55.826;37.046;2023-04-24T16:52:23;18.37;21.04
70321;DHT22;61127;55.826;37.046;2023-04-24T16:54:49;18.28;20.86
70321;DHT22;61127;55.826;37.046;2023-04-24T16:57:15;18.23;21.00
70321;DHT22;61127;55.826;37.046;2023-04-24T16:59:42;18.14;21.48
70321;DHT22;61127;55.826;37.046;2023-04-24T17:02:08;18.07;21.44
70321;DHT22;61127;55.826;37.046;2023-04-24T17:04:34;17.96;21.87
70321;DHT22;61127;55.826;37.046;2023-04-24T17:07:01;17.81;21.95
70321;DHT22;61127;55.826;37.046;2023-04-24T17:09:27;17.66;22.55
70321;DHT22;61127;55.826;37.046;2023-04-24T17:11:54;17.49;22.72
70321;DHT22;61127;55.826;37.046;2023-04-24T17:14:20;17.33;22.48
70321;DHT22;61127;55.826;37.046;2023-04-24T17:16:47;17.21;22.43
70321;DHT22;61127;55.826;37.046;2023-04-24T17:19:14;17.09;22.87
70321;DHT22;61127;55.826;37.046;2023-04-24T17:21:40;17.01;22.39
70321;DHT22;61127;55.826;37.046;2023-04-24T17:24:06;16.91;22.29
70321;DHT22;61127;55.826;37.046;2023-04-24T17:26:32;16.81;22.53
70321;DHT22;61127;55.826;37.046;2023-04-24T17:28:58;16.71;22.58
70321;DHT22;61127;55.826;37.046;2023-04-24T17:31:24;16.60;22.71
70321;DHT22;61127;55.826;37.046;2023-04-24T17:33:50;16.50;22.96
70321;DHT22;61127;55.826;37.046;2023-04-24T17:36:16;16.39;23.28
70321;DHT22;61127;55.826;37.046;2023-04-24T17:38:42;16.29;23.59
70321;DHT22;61127;55.826;37.046;2023-04-24T17:41:08;16.21;23.83
70321;DHT22;61127;55.826;37.046;2023-04-24T17:43:34;16.16;24.16
70321;DHT22;61127;55.826;37.046;2023-04-24T17:46:00;16.10;24.27
70321;DHT22;61127;55.826;37.046;2023-04-24T17:48:26;16.02;24.27
70321;DHT22;61127;55.826;37.046;2023-04-24T17:50:52;15.97;24.62
70321;DHT22;61127;55.826;37.046;2023-04-24T17:53:19;15.89;24.79
70321;DHT22;61127;55.826;37.046;2023-04-24T17:55:46;15.85;25.03
70321;DHT22;61127;55.826;37.046;2023-04-24T17:58:12;15.77;25.37
70321;DHT22;61127;55.826;37.046;2023-04-24T18:00:39;15.70;25.90
70321;DHT22;61127;55.826;37.046;2023-04-24T18:03:07;15.60;26.37
70321;DHT22;61127;55.826;37.046;2023-04-24T18:05:35;15.51;26.74
70321;DHT22;61127;55.826;37.046;2023-04-24T18:08:01;15.41;26.41
70321;DHT22;61127;55.826;37.046;2023-04-24T18:10:29;15.33;26.46
70321;DHT22;61127;55.826;37.046;2023-04-24T18:13:01;15.27;26.65
70321;DHT22;61127;55.826;37.046;2023-04-24T18:15:27;15.22;26.79
70321;DHT22;61127;55.826;37.046;2023-04-24T18:17:53;15.17;26.95
70321;DHT22;61127;55.826;37.046;2023-04-24T18:20:19;15.13;27.03
70321;DHT22;61127;55.826;37.046;2023-04-24T18:22:45;15.11;26.92
70321;DHT22;61127;55.826;37.046;2023-04-24T18:25:12;15.09;27.09
70321;DHT22;61127;55.826;37.046;2023-04-24T18:27:39;15.07;27.57
70321;DHT22;61127;55.826;37.046;2023-04-24T18:30:07;15.04;27.39
70321;DHT22;61127;55.826;37.046;2023-04-24T18:32:34;15.04;27.58
70321;DHT22;61127;55.826;37.046;2023-04-24T18:35:01;15.07;27.65
70321;DHT22;61127;55.826;37.046;2023-04-24T18:37:30;15.09;27.74
70321;DHT22;61127;55.826;37.046;2023-04-24T18:39:58;15.12;27.74
70321;DHT22;61127;55.826;37.046;2023-04-24T18:42:24;15.14;28.02
70321;DHT22;61127;55.826;37.046;2023-04-24T18:44:50;15.17;28.05
70321;DHT22;61127;55.826;37.046;2023-04-24T18:47:16;15.23;27.88
70321;DHT22;61127;55.826;37.046;2023-04-24T18:49:42;15.29;27.97
70321;DHT22;61127;55.826;37.046;2023-04-24T18:52:08;15.34;28.47
70321;DHT22;61127;55.826;37.046;2023-04-24T18:54:34;15.38;28.54
70321;DHT22;61127;55.826;37.046;2023-04-24T18:57:00;15.41;28.43
70321;DHT22;61127;55.826;37.046;2023-04-24T18:59:26;15.41;28.28
70321;DHT22;61127;55.826;37.046;2023-04-24T19:01:53;15.44;28.29
70321;DHT22;61127;55.826;37.046;2023-04-24T19:04:19;15.46;28.35
70321;DHT22;61127;55.826;37.046;2023-04-24T19:06:46;15.48;28.34
70321;DHT22;61127;55.826;37.046;2023-04-24T19:09:13;15.51;28.53
70321;DHT22;61127;55.826;37.046;2023-04-24T19:11:39;15.55;28.51
70321;DHT22;61127;55.826;37.046;2023-04-24T19:14:06;15.56;28.31
70321;DHT22;61127;55.826;37.046;2023-04-24T19:16:32;15.57;28.57
70321;DHT22;61127;55.826;37.046;2023-04-24T19:18:58;15.58;28.40
70321;DHT22;61127;55.826;37.046;2023-04-24T19:21:24;15.60;28.31
70321;DHT22;61127;55.826;37.046;2023-04-24T19:23:50;15.61;28.76
70321;DHT22;61127;55.826;37.046;2023-04-24T19:26:17;15.61;28.60
70321;DHT22;61127;55.826;37.046;2023-04-24T19:28:43;15.61;29.21
70321;DHT22;61127;55.826;37.046;2023-04-24T19:31:10;15.58;29.42
70321;DHT22;61127;55.826;37.046;2023-04-24T19:33:35;15.51;29.77
70321;DHT22;61127;55.826;37.046;2023-04-24T19:36:02;15.45;29.16
70321;DHT22;61127;55.826;37.046;2023-04-24T19:38:28;15.42;29.61
70321;DHT22;61127;55.826;37.046;2023-04-24T19:40:54;15.40;29.53
70321;DHT22;61127;55.826;37.046;2023-04-24T19:43:20;15.38;29.70
70321;DHT22;61127;55.826;37.046;2023-04-24T19:45:45;15.34;29.60
70321;DHT22;61127;55.826;37.046;2023-04-24T19:48:12;15.31;29.82
70321;DHT22;61127;55.826;37.046;2023-04-24T19:50:38;15.30;29.87
70321;DHT22;61127;55.826;37.046;2023-04-24T19:53:04;15.28;29.97
70321;DHT22;61127;55.826;37.046;2023-04-24T19:55:31;15.29;29.74
70321;DHT22;61127;55.826;37.046;2023-04-24T19:57:57;15.29;29.78
70321;DHT22;61127;55.826;37.046;2023-04-24T20:00:23;15.31;29.97
70321;DHT22;61127;55.826;37.046;2023-04-24T20:02:49;15.31;30.29
70321;DHT22;61127;55.826;37.046;2023-04-24T20:05:15;15.30;30.14
70321;DHT22;61127;55.826;37.046;2023-04-24T20:07:41;15.30;30.06
70321;DHT22;61127;55.826;37.046;2023-04-24T20:10:08;15.27;29.96
70321;DHT22;61127;55.826;37.046;2023-04-24T20:12:34;15.23;30.06
70321;DHT22;61127;55.826;37.046;2023-04-24T20:15:02;15.13;29.96
70321;DHT22;61127;55.826;37.046;2023-04-24T20:17:31;15.03;30.12
70321;DHT22;61127;55.826;37.046;2023-04-24T20:19:56;14.94;30.80
70321;DHT22;61127;55.826;37.046;2023-04-24T20:22:22;14.87;31.11
70321;DHT22;61127;55.826;37.046;2023-04-24T20:24:48;14.86;31.38
70321;DHT22;61127;55.826;37.046;2023-04-24T20:27:15;14.85;31.64
70321;DHT22;61127;55.826;37.046;2023-04-24T20:29:41;14.83;31.32
70321;DHT22;61127;55.826;37.046;2023-04-24T20:32:07;14.83;31.90
70321;DHT22;61127;55.826;37.046;2023-04-24T20:34:33;14.82;32.11
70321;DHT22;61127;55.826;37.046;2023-04-24T20:36:59;14.78;32.73
70321;DHT22;61127;55.826;37.046;2023-04-24T20:39:25;14.77;32.52
70321;DHT22;61127;55.826;37.046;2023-04-24T20:41:51;14.74;32.99
70321;DHT22;61127;55.826;37.046;2023-04-24T20:44:17;14.73;32.31
70321;DHT22;61127;55.826;37.046;2023-04-24T20:46:43;14.77;32.64
70321;DHT22;61127;55.826;37.046;2023-04-24T20:49:09;14.78;32.92
70321;DHT22;61127;55.826;37.046;2023-04-24T20:51:35;14.79;33.56
70321;DHT22;61127;55.826;37.046;2023-04-24T20:54:01;14.77;33.04
70321;DHT22;61127;55.826;37.046;2023-04-24T20:56:28;14.74;32.68
70321;DHT22;61127;55.826;37.046;2023-04-24T20:58:54;14.73;32.63
70321;DHT22;61127;55.826;37.046;2023-04-24T21:01:20;14.75;32.12
70321;DHT22;61127;55.826;37.046;2023-04-24T21:03:46;14.77;32.07
70321;DHT22;61127;55.826;37.046;2023-04-24T21:06:12;14.77;32.33
70321;DHT22;61127;55.826;37.046;2023-04-24T21:08:38;14.78;31.87
70321;DHT22;61127;55.826;37.046;2023-04-24T21:11:04;14.78;32.05
70321;DHT22;61127;55.826;37.046;2023-04-24T21:13:30;14.80;32.51
70321;DHT22;61127;55.826;37.046;2023-04-24T21:15:55;14.78;32.70
70321;DHT22;61127;55.826;37.046;2023-04-24T21:18:22;14.79;33.05
70321;DHT22;61127;55.826;37.046;2023-04-24T21:20:48;14.78;33.35
70321;DHT22;61127;55.826;37.046;2023-04-24T21:23:15;14.79;32.93
70321;DHT22;61127;55.826;37.046;2023-04-24T21:25:41;14.79;32.73
70321;DHT22;61127;55.826;37.046;2023-04-24T21:28:07;14.80;32.35
70321;DHT22;61127;55.826;37.046;2023-04-24T21:30:33;14.78;32.35
70321;DHT22;61127;55.826;37.046;2023-04-24T21:32:59;14.74;32.79
70321;DHT22;61127;55.826;37.046;2023-04-24T21:35:25;14.70;33.41
70321;DHT22;61127;55.826;37.046;2023-04-24T21:37:51;14.70;32.82
70321;DHT22;61127;55.826;37.046;2023-04-24T21:40:17;14.68;32.90
70321;DHT22;61127;55.826;37.046;2023-04-24T21:42:42;14.62;33.35
70321;DHT22;61127;55.826;37.046;2023-04-24T21:45:09;14.60;33.38
70321;DHT22;61127;55.826;37.046;2023-04-24T21:47:35;14.57;33.42
70321;DHT22;61127;55.826;37.046;2023-04-24T21:50:01;14.57;33.21
70321;DHT22;61127;55.826;37.046;2023-04-24T21:52:30;14.54;33.31
70321;DHT22;61127;55.826;37.046;2023-04-24T21:54:56;14.51;33.71
70321;DHT22;61127;55.826;37.046;2023-04-24T21:57:22;14.45;33.74
70321;DHT22;61127;55.826;37.046;2023-04-24T21:59:48;14.40;33.83
70321;DHT22;61127;55.826;37.046;2023-04-24T22:02:14;14.33;33.73
70321;DHT22;61127;55.826;37.046;2023-04-24T22:04:40;14.27;34.05
70321;DHT22;61127;55.826;37.046;2023-04-24T22:07:06;14.19;33.84
70321;DHT22;61127;55.826;37.046;2023-04-24T22:09:33;14.09;34.32
70321;DHT22;61127;55.826;37.046;2023-04-24T22:11:58;14.03;35.60
70321;DHT22;61127;55.826;37.046;2023-04-24T22:14:25;13.95;35.38
70321;DHT22;61127;55.826;37.046;2023-04-24T22:16:51;13.89;34.77
70321;DHT22;61127;55.826;37.046;2023-04-24T22:19:17;13.84;34.70
70321;DHT22;61127;55.826;37.046;2023-04-24T22:21:43;13.80;34.42
70321;DHT22;61127;55.826;37.046;2023-04-24T22:24:09;13.78;34.77
70321;DHT22;61127;55.826;37.046;2023-04-24T22:26:35;13.73;34.73
70321;DHT22;61127;55.826;37.046;2023-04-24T22:29:01;13.65;34.88
70321;DHT22;61127;55.826;37.046;2023-04-24T22:31:27;13.58;34.36
70321;DHT22;61127;55.826;37.046;2023-04-24T22:33:53;13.50;34.06
70321;DHT22;61127;55.826;37.046;2023-04-24T22:36:18;13.40;34.06
70321;DHT22;61127;55.826;37.046;2023-04-24T22:38:44;13.37;34.22
70321;DHT22;61127;55.826;37.046;2023-04-24T22:41:11;13.29;34.25
70321;DHT22;61127;55.826;37.046;2023-04-24T22:43:37;13.22;34.01
70321;DHT22;61127;55.826;37.046;2023-04-24T22:46:03;13.16;34.29
70321;DHT22;61127;55.826;37.046;2023-04-24T22:48:30;13.07;34.31
70321;DHT22;61127;55.826;37.046;2023-04-24T22:50:57;12.99;34.18
70321;DHT22;61127;55.826;37.046;2023-04-24T22:53:23;12.92;34.33
70321;DHT22;61127;55.826;37.046;2023-04-24T22:55:49;12.85;34.75
70321;DHT22;61127;55.826;37.046;2023-04-24T22:58:15;12.74;35.08
70321;DHT22;61127;55.826;37.046;2023-04-24T23:00:41;12.66;34.74
70321;DHT22;61127;55.826;37.046;2023-04-24T23:03:06;12.55;35.69
70321;DHT22;61127;55.826;37.046;2023-04-24T23:05:32;12.46;36.14
70321;DHT22;61127;55.826;37.046;2023-04-24T23:07:58;12.38;35.81
70321;DHT22;61127;55.826;37.046;2023-04-24T23:10:24;12.30;35.87
70321;DHT22;61127;55.826;37.046;2023-04-24T23:12:50;12.21;36.66
70321;DHT22;61127;55.826;37.046;2023-04-24T23:15:16;12.12;37.09
70321;DHT22;61127;55.826;37.046;2023-04-24T23:17:43;12.04;37.33
70321;DHT22;61127;55.826;37.046;2023-04-24T23:20:12;11.99;37.07
70321;DHT22;61127;55.826;37.046;2023-04-24T23:22:39;11.92;37.22
70321;DHT22;61127;55.826;37.046;2023-04-24T23:25:05;11.87;37.69
70321;DHT22;61127;55.826;37.046;2023-04-24T23:27:36;11.85;37.84
70321;DHT22;61127;55.826;37.046;2023-04-24T23:30:03;11.82;38.06
70321;DHT22;61127;55.826;37.046;2023-04-24T23:32:31;11.81;38.46
70321;DHT22;61127;55.826;37.046;2023-04-24T23:34:57;11.82;38.49
70321;DHT22;61127;55.826;37.046;2023-04-24T23:37:23;11.84;38.76